SBI6245 UHWW-ZSPD
Flight info
| Callsign | SBI6245 |
|---|---|
| Flight time | N/A |
| Altitude | 34100 |
| Route | SANAR DCT BISUN B451 WQG G341 LJB A588 NODAL/K0869S1100 A588 CHI W107 SANKO/K0857S1070 A326 AKARA A593 PUD |
| Aircraft | B738/M-SDE2E3FGHIRWXY/LB1 |
Departure
| Time | 2026-04-10 17:35 |
|---|---|
| Airport | Vladivostok International Airport (UHWW) |
Arrival
| Time | N/A |
|---|---|
| Airport | Shanghai Pudong International Airport (ZSPD) |
| Time | Latitude | Longitude | Altitude | Speed | Heading |
|---|---|---|---|---|---|
| 2026-04-10 17:14 | 43.39814 | 132.16760 | 32 ft | 0 kts | 150° |
| 2026-04-10 17:24 | 43.39821 | 132.16755 | 30 ft | 2 kts | 148° |
| 2026-04-10 17:25 | 43.39835 | 132.16743 | 32 ft | 2 kts | 147° |
| 2026-04-10 17:25 | 43.39848 | 132.16729 | 31 ft | 2 kts | 141° |
| 2026-04-10 17:25 | 43.39860 | 132.16715 | 31 ft | 2 kts | 135° |
| 2026-04-10 17:25 | 43.39872 | 132.16698 | 31 ft | 2 kts | 126° |
| 2026-04-10 17:26 | 43.39881 | 132.16678 | 29 ft | 2 kts | 115° |
| 2026-04-10 17:26 | 43.39886 | 132.16657 | 30 ft | 2 kts | 99° |
| 2026-04-10 17:26 | 43.39887 | 132.16634 | 32 ft | 2 kts | 81° |
| 2026-04-10 17:26 | 43.39883 | 132.16612 | 29 ft | 2 kts | 66° |
| 2026-04-10 17:27 | 43.39879 | 132.16603 | 29 ft | 1 kts | 62° |
| 2026-04-10 17:29 | 43.39884 | 132.16615 | 31 ft | 4 kts | 62° |
| 2026-04-10 17:30 | 43.39905 | 132.16668 | 30 ft | 9 kts | 60° |
| 2026-04-10 17:30 | 43.39939 | 132.16750 | 32 ft | 11 kts | 61° |
| 2026-04-10 17:30 | 43.39975 | 132.16840 | 30 ft | 11 kts | 61° |
| 2026-04-10 17:30 | 43.40012 | 132.16926 | 32 ft | 10 kts | 60° |
| 2026-04-10 17:31 | 43.40044 | 132.17012 | 30 ft | 10 kts | 62° |
| 2026-04-10 17:31 | 43.40077 | 132.17077 | 32 ft | 8 kts | 33° |
| 2026-04-10 17:31 | 43.40130 | 132.17073 | 32 ft | 5 kts | 336° |
| 2026-04-10 17:31 | 43.40133 | 132.17071 | 32 ft | 0 kts | 333° |
| 2026-04-10 17:32 | 43.40139 | 132.17067 | 32 ft | 2 kts | 333° |
| 2026-04-10 17:32 | 43.40163 | 132.17050 | 31 ft | 5 kts | 332° |
| 2026-04-10 17:32 | 43.40204 | 132.17020 | 30 ft | 8 kts | 332° |
| 2026-04-10 17:33 | 43.40262 | 132.16977 | 31 ft | 11 kts | 330° |
| 2026-04-10 17:33 | 43.40333 | 132.16921 | 30 ft | 13 kts | 330° |
| 2026-04-10 17:33 | 43.40403 | 132.16868 | 31 ft | 9 kts | 327° |
| 2026-04-10 17:33 | 43.40433 | 132.16811 | 31 ft | 6 kts | 282° |
| 2026-04-10 17:34 | 43.40418 | 132.16757 | 31 ft | 7 kts | 242° |
| 2026-04-10 17:34 | 43.40333 | 132.16544 | 30 ft | 62 kts | 241° |
| 2026-04-10 17:34 | 43.40000 | 132.15727 | 30 ft | 134 kts | 240° |
| 2026-04-10 17:34 | 43.39461 | 132.14382 | 259 ft | 176 kts | 241° |
| 2026-04-10 17:35 | 43.38862 | 132.12840 | 1062 ft | 190 kts | 241° |
| 2026-04-10 17:35 | 43.38261 | 132.11226 | 2001 ft | 187 kts | 243° |
| 2026-04-10 17:35 | 43.37651 | 132.09560 | 2411 ft | 205 kts | 244° |
| 2026-04-10 17:35 | 43.37010 | 132.07724 | 2832 ft | 220 kts | 246° |
| 2026-04-10 17:36 | 43.36331 | 132.05726 | 3194 ft | 239 kts | 247° |
| 2026-04-10 17:36 | 43.35694 | 132.03594 | 3995 ft | 242 kts | 253° |
| 2026-04-10 17:36 | 43.35163 | 132.01431 | 4893 ft | 243 kts | 256° |
| 2026-04-10 17:36 | 43.34637 | 131.99192 | 5700 ft | 248 kts | 256° |
| 2026-04-10 17:37 | 43.34104 | 131.96922 | 6504 ft | 251 kts | 256° |
| 2026-04-10 17:37 | 43.33562 | 131.94630 | 7324 ft | 253 kts | 256° |
| 2026-04-10 17:37 | 43.33009 | 131.92309 | 8113 ft | 257 kts | 255° |
| 2026-04-10 17:37 | 43.32446 | 131.89956 | 8917 ft | 261 kts | 255° |
| 2026-04-10 17:38 | 43.31875 | 131.87578 | 9692 ft | 264 kts | 255° |
| 2026-04-10 17:38 | 43.31291 | 131.85159 | 10363 ft | 271 kts | 254° |
| 2026-04-10 17:38 | 43.30680 | 131.82621 | 10577 ft | 293 kts | 254° |
| 2026-04-10 17:38 | 43.30014 | 131.79867 | 10770 ft | 315 kts | 253° |
| 2026-04-10 17:39 | 43.29298 | 131.76912 | 10937 ft | 336 kts | 253° |
| 2026-04-10 17:39 | 43.28534 | 131.73772 | 11095 ft | 356 kts | 253° |
| 2026-04-10 17:39 | 43.27734 | 131.70493 | 11433 ft | 368 kts | 253° |
| 2026-04-10 17:39 | 43.26947 | 131.67277 | 11982 ft | 372 kts | 253° |
| 2026-04-10 17:40 | 43.26089 | 131.63776 | 12745 ft | 373 kts | 253° |
| 2026-04-10 17:40 | 43.25257 | 131.60384 | 13373 ft | 377 kts | 252° |
| 2026-04-10 17:40 | 43.24461 | 131.57135 | 13888 ft | 381 kts | 252° |
| 2026-04-10 17:40 | 43.23646 | 131.53816 | 14464 ft | 383 kts | 252° |
| 2026-04-10 17:41 | 43.22793 | 131.50347 | 15029 ft | 385 kts | 252° |
| 2026-04-10 17:41 | 43.21944 | 131.46828 | 15588 ft | 388 kts | 254° |
| 2026-04-10 17:41 | 43.21580 | 131.43156 | 16091 ft | 393 kts | 270° |
| 2026-04-10 17:41 | 43.21815 | 131.39408 | 16659 ft | 396 kts | 275° |
| 2026-04-10 17:42 | 43.22123 | 131.35637 | 17173 ft | 400 kts | 275° |
| 2026-04-10 17:42 | 43.22424 | 131.31883 | 17671 ft | 403 kts | 274° |
| 2026-04-10 17:42 | 43.22714 | 131.28034 | 18124 ft | 406 kts | 274° |
| 2026-04-10 17:42 | 43.22991 | 131.24161 | 18584 ft | 408 kts | 273° |
| 2026-04-10 17:43 | 43.23262 | 131.20276 | 19045 ft | 410 kts | 273° |
| 2026-04-10 17:43 | 43.23504 | 131.16345 | 19472 ft | 413 kts | 271° |
| 2026-04-10 17:43 | 43.23698 | 131.12455 | 19891 ft | 416 kts | 271° |
| 2026-04-10 17:43 | 43.23877 | 131.08491 | 20309 ft | 418 kts | 270° |
| 2026-04-10 17:44 | 43.24052 | 131.04494 | 20722 ft | 421 kts | 270° |
| 2026-04-10 17:44 | 43.24230 | 131.00472 | 21129 ft | 423 kts | 270° |
| 2026-04-10 17:44 | 43.24412 | 130.96415 | 21506 ft | 427 kts | 270° |
| 2026-04-10 17:44 | 43.24595 | 130.92344 | 21899 ft | 429 kts | 270° |
| 2026-04-10 17:45 | 43.24782 | 130.88243 | 22282 ft | 432 kts | 269° |
| 2026-04-10 17:45 | 43.24969 | 130.84155 | 22617 ft | 435 kts | 269° |
| 2026-04-10 17:45 | 43.25159 | 130.79985 | 22957 ft | 438 kts | 269° |
| 2026-04-10 17:45 | 43.25348 | 130.75791 | 23251 ft | 441 kts | 269° |
| 2026-04-10 17:46 | 43.25537 | 130.71582 | 23538 ft | 442 kts | 269° |
| 2026-04-10 17:46 | 43.25722 | 130.67403 | 23840 ft | 443 kts | 270° |
| 2026-04-10 17:46 | 43.25909 | 130.63164 | 24126 ft | 445 kts | 270° |
| 2026-04-10 17:46 | 43.26093 | 130.58908 | 24399 ft | 447 kts | 270° |
| 2026-04-10 17:47 | 43.26278 | 130.54644 | 24678 ft | 448 kts | 270° |
| 2026-04-10 17:47 | 43.26462 | 130.50372 | 24932 ft | 449 kts | 270° |
| 2026-04-10 17:47 | 43.26645 | 130.46073 | 25192 ft | 450 kts | 270° |
| 2026-04-10 17:47 | 43.26826 | 130.41762 | 25434 ft | 451 kts | 270° |
| 2026-04-10 17:48 | 43.27003 | 130.37508 | 25676 ft | 452 kts | 270° |
| 2026-04-10 17:48 | 43.27181 | 130.33197 | 25948 ft | 451 kts | 270° |
| 2026-04-10 17:48 | 43.27358 | 130.28898 | 26274 ft | 449 kts | 270° |
| 2026-04-10 17:48 | 43.27532 | 130.24626 | 26619 ft | 447 kts | 271° |
| 2026-04-10 17:49 | 43.27703 | 130.20369 | 26944 ft | 445 kts | 271° |
| 2026-04-10 17:49 | 43.27872 | 130.16137 | 27235 ft | 445 kts | 271° |
| 2026-04-10 17:49 | 43.28039 | 130.11892 | 27562 ft | 443 kts | 271° |
| 2026-04-10 17:49 | 43.28204 | 130.07664 | 27910 ft | 441 kts | 271° |
| 2026-04-10 17:50 | 43.28364 | 130.03521 | 28228 ft | 439 kts | 271° |
| 2026-04-10 17:50 | 43.28525 | 129.99322 | 28521 ft | 438 kts | 271° |
| 2026-04-10 17:50 | 43.28684 | 129.95137 | 28813 ft | 437 kts | 271° |
| 2026-04-10 17:50 | 43.28840 | 129.90972 | 29119 ft | 436 kts | 271° |
| 2026-04-10 17:51 | 43.28994 | 129.86866 | 29429 ft | 435 kts | 271° |
| 2026-04-10 17:51 | 43.29148 | 129.82702 | 29693 ft | 434 kts | 271° |
| 2026-04-10 17:51 | 43.29328 | 129.78566 | 29871 ft | 435 kts | 274° |
| 2026-04-10 17:51 | 43.29809 | 129.74456 | 30038 ft | 436 kts | 279° |
| 2026-04-10 17:52 | 43.30406 | 129.70375 | 30230 ft | 436 kts | 279° |
| 2026-04-10 17:52 | 43.31013 | 129.66278 | 30401 ft | 436 kts | 279° |
| 2026-04-10 17:52 | 43.31606 | 129.62235 | 30582 ft | 436 kts | 279° |
| 2026-04-10 17:52 | 43.32200 | 129.58132 | 30760 ft | 436 kts | 279° |
| 2026-04-10 17:53 | 43.32786 | 129.54033 | 30941 ft | 436 kts | 279° |
| 2026-04-10 17:53 | 43.33358 | 129.49995 | 31119 ft | 436 kts | 279° |
| 2026-04-10 17:53 | 43.33927 | 129.45960 | 31287 ft | 436 kts | 279° |
| 2026-04-10 17:53 | 43.34495 | 129.41903 | 31462 ft | 436 kts | 279° |
| 2026-04-10 17:54 | 43.35068 | 129.37808 | 31669 ft | 435 kts | 279° |
| 2026-04-10 17:54 | 43.35643 | 129.33693 | 31843 ft | 435 kts | 279° |
| 2026-04-10 17:54 | 43.36205 | 129.29651 | 31996 ft | 434 kts | 279° |
| 2026-04-10 17:54 | 43.36586 | 129.26915 | 32115 ft | 434 kts | 279° |
| 2026-04-10 17:55 | 43.37159 | 129.22774 | 32286 ft | 434 kts | 279° |
| 2026-04-10 17:55 | 43.37719 | 129.18727 | 32464 ft | 434 kts | 279° |
| 2026-04-10 17:55 | 43.38284 | 129.14631 | 32653 ft | 433 kts | 279° |
| 2026-04-10 17:55 | 43.38854 | 129.10494 | 32885 ft | 431 kts | 279° |
| 2026-04-10 17:56 | 43.39401 | 129.06505 | 33153 ft | 429 kts | 279° |
| 2026-04-10 17:56 | 43.39945 | 129.02470 | 33418 ft | 427 kts | 279° |
| 2026-04-10 17:56 | 43.40476 | 128.98457 | 33598 ft | 427 kts | 279° |
| 2026-04-10 17:56 | 43.41005 | 128.94432 | 33670 ft | 428 kts | 279° |
| 2026-04-10 17:57 | 43.42060 | 128.86358 | 33695 ft | 429 kts | 279° |
| 2026-04-10 17:57 | 43.43118 | 128.78253 | 33700 ft | 428 kts | 279° |
| 2026-04-10 17:58 | 43.44165 | 128.70192 | 33696 ft | 428 kts | 279° |
| 2026-04-10 17:58 | 43.45201 | 128.62178 | 33709 ft | 428 kts | 279° |
| 2026-04-10 17:59 | 43.46241 | 128.54079 | 33707 ft | 428 kts | 279° |
| 2026-04-10 17:59 | 43.47269 | 128.46033 | 33710 ft | 428 kts | 279° |
| 2026-04-10 18:00 | 43.48295 | 128.37949 | 33712 ft | 427 kts | 279° |
| 2026-04-10 18:00 | 43.49315 | 128.29877 | 33722 ft | 427 kts | 279° |
| 2026-04-10 18:01 | 43.50350 | 128.21884 | 33711 ft | 426 kts | 279° |
| 2026-04-10 18:01 | 43.51419 | 128.13859 | 33718 ft | 425 kts | 279° |
| 2026-04-10 18:02 | 43.52481 | 128.05831 | 33726 ft | 424 kts | 279° |
| 2026-04-10 18:02 | 43.53522 | 127.97866 | 33726 ft | 424 kts | 279° |
| 2026-04-10 18:03 | 43.54562 | 127.89866 | 33729 ft | 423 kts | 279° |
| 2026-04-10 18:03 | 43.55595 | 127.81874 | 33726 ft | 423 kts | 279° |
| 2026-04-10 18:04 | 43.56614 | 127.73910 | 33742 ft | 423 kts | 279° |
| 2026-04-10 18:04 | 43.57623 | 127.65917 | 33750 ft | 422 kts | 279° |
| 2026-04-10 18:05 | 43.58627 | 127.57920 | 33745 ft | 422 kts | 279° |
| 2026-04-10 18:05 | 43.59618 | 127.49989 | 33744 ft | 422 kts | 279° |
| 2026-04-10 18:06 | 43.60614 | 127.41979 | 33740 ft | 422 kts | 279° |
| 2026-04-10 18:06 | 43.61596 | 127.34036 | 33748 ft | 422 kts | 279° |
| 2026-04-10 18:07 | 43.62567 | 127.26060 | 33750 ft | 421 kts | 279° |
| 2026-04-10 18:07 | 43.63450 | 127.18050 | 33748 ft | 420 kts | 278° |
| 2026-04-10 18:08 | 43.64298 | 127.10110 | 33748 ft | 420 kts | 278° |
| 2026-04-10 18:08 | 43.65154 | 127.02117 | 33751 ft | 420 kts | 278° |
| 2026-04-10 18:09 | 43.66428 | 126.90216 | 33754 ft | 419 kts | 278° |
| 2026-04-10 18:10 | 43.67276 | 126.82248 | 33755 ft | 418 kts | 278° |
| 2026-04-10 18:10 | 43.68116 | 126.74293 | 33751 ft | 417 kts | 278° |
| 2026-04-10 18:11 | 43.68944 | 126.66397 | 33757 ft | 417 kts | 278° |
| 2026-04-10 18:11 | 43.69772 | 126.58455 | 33768 ft | 417 kts | 278° |
| 2026-04-10 18:12 | 43.70593 | 126.50519 | 33764 ft | 417 kts | 278° |
| 2026-04-10 18:12 | 43.71404 | 126.42619 | 33757 ft | 416 kts | 278° |
| 2026-04-10 18:13 | 43.72214 | 126.34682 | 33763 ft | 416 kts | 278° |
| 2026-04-10 18:13 | 43.73014 | 126.26787 | 33759 ft | 416 kts | 278° |
| 2026-04-10 18:14 | 43.73813 | 126.18839 | 33763 ft | 416 kts | 278° |
| 2026-04-10 18:14 | 43.74600 | 126.10958 | 33757 ft | 416 kts | 278° |
| 2026-04-10 18:15 | 43.75387 | 126.03031 | 33763 ft | 416 kts | 278° |
| 2026-04-10 18:15 | 43.76121 | 125.95084 | 33756 ft | 416 kts | 272° |
| 2026-04-10 18:15 | 43.75820 | 125.91090 | 33770 ft | 420 kts | 259° |
| 2026-04-10 18:16 | 43.74833 | 125.87323 | 33760 ft | 427 kts | 247° |
| 2026-04-10 18:16 | 43.71085 | 125.80800 | 33751 ft | 446 kts | 224° |
| 2026-04-10 18:17 | 43.65606 | 125.76467 | 33767 ft | 457 kts | 214° |
| 2026-04-10 18:17 | 43.59925 | 125.72584 | 33763 ft | 457 kts | 214° |
| 2026-04-10 18:18 | 43.54226 | 125.68652 | 33778 ft | 456 kts | 214° |
| 2026-04-10 18:18 | 43.48595 | 125.64689 | 33790 ft | 455 kts | 215° |
| 2026-04-10 18:19 | 43.42950 | 125.60690 | 33786 ft | 454 kts | 215° |
| 2026-04-10 18:19 | 43.37374 | 125.56746 | 33791 ft | 453 kts | 215° |
| 2026-04-10 18:20 | 43.31757 | 125.52784 | 33802 ft | 452 kts | 215° |
| 2026-04-10 18:20 | 43.26182 | 125.48861 | 33807 ft | 452 kts | 215° |
| 2026-04-10 18:21 | 43.20572 | 125.44922 | 33810 ft | 451 kts | 216° |
| 2026-04-10 18:21 | 43.15006 | 125.41023 | 33818 ft | 450 kts | 216° |
| 2026-04-10 18:22 | 43.09411 | 125.37111 | 33827 ft | 449 kts | 216° |
| 2026-04-10 18:22 | 43.03876 | 125.33248 | 33834 ft | 449 kts | 216° |
| 2026-04-10 18:23 | 42.98328 | 125.29384 | 33835 ft | 449 kts | 216° |
| 2026-04-10 18:23 | 42.92756 | 125.25511 | 33843 ft | 448 kts | 216° |
| 2026-04-10 18:24 | 42.87166 | 125.21632 | 33845 ft | 449 kts | 216° |
| 2026-04-10 18:24 | 42.81637 | 125.17803 | 33856 ft | 448 kts | 216° |
| 2026-04-10 18:25 | 42.76081 | 125.13906 | 33857 ft | 448 kts | 217° |
| 2026-04-10 18:25 | 42.70533 | 125.09998 | 33869 ft | 448 kts | 217° |
| 2026-04-10 18:26 | 42.65011 | 125.06119 | 33867 ft | 448 kts | 217° |
| 2026-04-10 18:26 | 42.59463 | 125.02236 | 33869 ft | 448 kts | 217° |
| 2026-04-10 18:27 | 42.53960 | 124.98392 | 33873 ft | 447 kts | 217° |
| 2026-04-10 18:27 | 42.48429 | 124.94538 | 33878 ft | 447 kts | 217° |
| 2026-04-10 18:28 | 42.42894 | 124.90688 | 33884 ft | 446 kts | 218° |
| 2026-04-10 18:28 | 42.37390 | 124.86866 | 33893 ft | 446 kts | 218° |
| 2026-04-10 18:29 | 42.31858 | 124.83032 | 33902 ft | 446 kts | 218° |
| 2026-04-10 18:29 | 42.26312 | 124.79197 | 33908 ft | 446 kts | 218° |
| 2026-04-10 18:30 | 42.20814 | 124.75402 | 33915 ft | 447 kts | 218° |
| 2026-04-10 18:30 | 42.15249 | 124.71569 | 33920 ft | 447 kts | 218° |
| 2026-04-10 18:31 | 42.09690 | 124.67747 | 33926 ft | 447 kts | 218° |
| 2026-04-10 18:31 | 42.04170 | 124.63959 | 33928 ft | 448 kts | 218° |
| 2026-04-10 18:32 | 41.98602 | 124.60146 | 33935 ft | 448 kts | 219° |
| 2026-04-10 18:32 | 41.93168 | 124.56178 | 33931 ft | 444 kts | 221° |
| 2026-04-10 18:33 | 41.87839 | 124.52034 | 33937 ft | 444 kts | 222° |
| 2026-04-10 18:33 | 41.82468 | 124.47883 | 33939 ft | 445 kts | 221° |
| 2026-04-10 18:34 | 41.77072 | 124.43762 | 33937 ft | 445 kts | 221° |
| 2026-04-10 18:34 | 41.71690 | 124.39678 | 33935 ft | 446 kts | 221° |
| 2026-04-10 18:35 | 41.66317 | 124.35609 | 33943 ft | 446 kts | 221° |
| 2026-04-10 18:35 | 41.60897 | 124.31511 | 33957 ft | 446 kts | 221° |
| 2026-04-10 18:36 | 41.55486 | 124.27426 | 33953 ft | 446 kts | 221° |
| 2026-04-10 18:36 | 41.50099 | 124.23366 | 33953 ft | 447 kts | 221° |
| 2026-04-10 18:37 | 41.44677 | 124.19288 | 33954 ft | 446 kts | 221° |
| 2026-04-10 18:37 | 41.39277 | 124.15245 | 33956 ft | 447 kts | 221° |
| 2026-04-10 18:38 | 41.33795 | 124.11260 | 33953 ft | 448 kts | 220° |
| 2026-04-10 18:38 | 41.28331 | 124.07327 | 33962 ft | 448 kts | 220° |
| 2026-04-10 18:39 | 41.23770 | 124.04040 | 33967 ft | 447 kts | 220° |
| 2026-04-10 18:39 | 41.18308 | 124.00101 | 33974 ft | 446 kts | 220° |
| 2026-04-10 18:40 | 41.12874 | 123.96185 | 33959 ft | 446 kts | 220° |
| 2026-04-10 18:40 | 41.07409 | 123.92255 | 33958 ft | 445 kts | 220° |
| 2026-04-10 18:41 | 41.01987 | 123.88363 | 33971 ft | 444 kts | 220° |
| 2026-04-10 18:41 | 40.96552 | 123.84468 | 33964 ft | 444 kts | 220° |
| 2026-04-10 18:42 | 40.91110 | 123.80575 | 33968 ft | 444 kts | 220° |
| 2026-04-10 18:42 | 40.85657 | 123.76682 | 33975 ft | 445 kts | 220° |
| 2026-04-10 18:43 | 40.80251 | 123.72795 | 33975 ft | 444 kts | 220° |
| 2026-04-10 18:43 | 40.74839 | 123.68803 | 33974 ft | 444 kts | 221° |
| 2026-04-10 18:44 | 40.69454 | 123.64836 | 33974 ft | 445 kts | 220° |
| 2026-04-10 18:44 | 40.64031 | 123.60862 | 33979 ft | 446 kts | 220° |
| 2026-04-10 18:45 | 40.58593 | 123.56889 | 33980 ft | 446 kts | 220° |
| 2026-04-10 18:45 | 40.53192 | 123.52951 | 33981 ft | 446 kts | 220° |
| 2026-04-10 18:46 | 40.47755 | 123.48991 | 33974 ft | 446 kts | 220° |
| 2026-04-10 18:46 | 40.42349 | 123.45060 | 33975 ft | 446 kts | 220° |
| 2026-04-10 18:47 | 40.36915 | 123.41115 | 33971 ft | 446 kts | 220° |
| 2026-04-10 18:47 | 40.31515 | 123.37202 | 33988 ft | 445 kts | 220° |
| 2026-04-10 18:48 | 40.26070 | 123.33264 | 33982 ft | 445 kts | 220° |
| 2026-04-10 18:48 | 40.20638 | 123.29341 | 33991 ft | 445 kts | 220° |
| 2026-04-10 18:49 | 40.15233 | 123.25446 | 33984 ft | 445 kts | 220° |
| 2026-04-10 18:49 | 40.09784 | 123.21525 | 33991 ft | 446 kts | 220° |
| 2026-04-10 18:50 | 40.04342 | 123.17616 | 33982 ft | 446 kts | 220° |
| 2026-04-10 18:50 | 39.98953 | 123.13709 | 33980 ft | 445 kts | 220° |
| 2026-04-10 18:51 | 39.93534 | 123.09759 | 33983 ft | 444 kts | 220° |
| 2026-04-10 18:51 | 39.88141 | 123.05835 | 33981 ft | 444 kts | 220° |
| 2026-04-10 18:52 | 39.82772 | 123.01942 | 33981 ft | 443 kts | 220° |
| 2026-04-10 18:52 | 39.77382 | 122.98042 | 33979 ft | 442 kts | 220° |
| 2026-04-10 18:53 | 39.72005 | 122.94158 | 33985 ft | 441 kts | 220° |
| 2026-04-10 18:53 | 39.66633 | 122.90285 | 33989 ft | 440 kts | 220° |
| 2026-04-10 18:54 | 39.61308 | 122.86452 | 33985 ft | 440 kts | 220° |
| 2026-04-10 18:54 | 39.55950 | 122.82602 | 33979 ft | 439 kts | 220° |
| 2026-04-10 18:55 | 39.50631 | 122.78787 | 33986 ft | 438 kts | 220° |
| 2026-04-10 18:55 | 39.45294 | 122.74965 | 33980 ft | 437 kts | 219° |
| 2026-04-10 18:56 | 39.39960 | 122.71152 | 33983 ft | 436 kts | 219° |
| 2026-04-10 18:56 | 39.34676 | 122.67381 | 33993 ft | 435 kts | 219° |
| 2026-04-10 18:57 | 39.29347 | 122.63604 | 33991 ft | 438 kts | 217° |
| 2026-04-10 18:57 | 39.26535 | 122.62088 | 33993 ft | 449 kts | 209° |
| 2026-04-10 18:57 | 39.23472 | 122.61045 | 33983 ft | 463 kts | 200° |
| 2026-04-10 18:58 | 39.17016 | 122.59975 | 33983 ft | 468 kts | 197° |
| 2026-04-10 18:58 | 39.10526 | 122.59018 | 33984 ft | 467 kts | 197° |